createdAt,value
2017-02-17T00:01:08.650Z,0
2017-02-17T00:02:18.092Z,0
2017-02-17T00:03:27.155Z,0
2017-02-17T00:04:36.223Z,0
2017-02-17T00:05:46.062Z,0
2017-02-17T00:06:55.176Z,0
2017-02-17T00:08:05.411Z,0
2017-02-17T00:09:14.860Z,0
2017-02-17T00:10:24.309Z,0
2017-02-17T00:11:33.381Z,0
2017-02-17T00:12:42.838Z,0
2017-02-17T00:13:52.280Z,0
2017-02-17T00:15:01.848Z,0
2017-02-17T00:16:11.320Z,0
2017-02-17T00:17:20.782Z,0
2017-02-17T00:18:30.613Z,0
2017-02-17T00:19:40.475Z,0
2017-02-17T00:20:49.958Z,0
2017-02-17T00:21:59.405Z,0
2017-02-17T00:23:08.858Z,0
2017-02-17T00:24:17.912Z,0
2017-02-17T00:25:27.747Z,0
2017-02-17T00:26:37.216Z,0
2017-02-17T00:27:46.286Z,0
2017-02-17T00:28:55.353Z,0
2017-02-17T00:30:04.799Z,0
2017-02-17T00:31:13.878Z,0
2017-02-17T00:32:22.663Z,0
2017-02-17T00:33:31.759Z,0
2017-02-17T00:34:40.457Z,0
2017-02-17T00:35:49.897Z,0
2017-02-17T00:36:58.993Z,0
2017-02-17T00:38:08.044Z,0
2017-02-17T00:39:17.128Z,0
2017-02-17T00:40:25.824Z,0
2017-02-17T00:41:35.273Z,0
2017-02-17T00:42:44.727Z,0
2017-02-17T00:43:53.792Z,0
2017-02-17T00:45:02.467Z,0
2017-02-17T00:46:11.539Z,0
2017-02-17T00:47:20.972Z,0
2017-02-17T00:48:30.053Z,0
2017-02-17T00:49:39.506Z,0
2017-02-17T00:50:48.180Z,0
2017-02-17T00:51:57.260Z,0
2017-02-17T00:53:06.718Z,0
2017-02-17T00:54:15.406Z,0
2017-02-17T00:55:24.117Z,0
2017-02-17T00:56:32.802Z,0
2017-02-17T00:57:41.863Z,0
2017-02-17T00:58:51.328Z,0
2017-02-17T01:00:01.545Z,0
2017-02-17T01:01:10.998Z,0
2017-02-17T01:02:19.705Z,0
2017-02-17T01:03:29.154Z,0
2017-02-17T01:04:38.230Z,0
2017-02-17T01:05:47.333Z,0
2017-02-17T01:06:56.399Z,0
2017-02-17T01:08:05.845Z,0
2017-02-17T01:09:15.284Z,0
2017-02-17T01:10:25.125Z,0
2017-02-17T01:11:34.572Z,0
2017-02-17T01:12:44.798Z,0
2017-02-17T01:13:54.248Z,0
2017-02-17T01:15:03.704Z,0
2017-02-17T01:16:12.775Z,0
2017-02-17T01:17:21.478Z,0
2017-02-17T01:18:30.575Z,0
2017-02-17T01:19:39.679Z,0
2017-02-17T01:20:49.134Z,0
2017-02-17T01:21:58.964Z,0
2017-02-17T01:23:08.415Z,0
2017-02-17T01:24:18.242Z,0
2017-02-17T01:25:28.085Z,0
2017-02-17T01:26:37.212Z,0
2017-02-17T01:27:45.888Z,0
2017-02-17T01:28:55.343Z,0
2017-02-17T01:30:04.043Z,0
2017-02-17T01:31:13.114Z,0
2017-02-17T01:32:22.193Z,0
2017-02-17T01:33:30.881Z,0
2017-02-17T01:34:39.956Z,0
2017-02-17T01:35:49.026Z,0
2017-02-17T01:36:58.083Z,0
2017-02-17T01:38:07.166Z,0
2017-02-17T01:39:16.982Z,0
2017-02-17T01:40:26.035Z,0
2017-02-17T01:41:35.486Z,0
2017-02-17T01:42:45.313Z,0
2017-02-17T01:43:54.749Z,0
2017-02-17T01:45:03.439Z,0
2017-02-17T01:46:12.516Z,0
2017-02-17T01:47:21.198Z,0
2017-02-17T01:48:29.900Z,0
2017-02-17T01:49:39.351Z,0
2017-02-17T01:50:48.813Z,0
2017-02-17T01:51:57.495Z,0
2017-02-17T01:53:06.588Z,0
2017-02-17T01:54:16.029Z,0
2017-02-17T01:55:25.477Z,0
2017-02-17T01:56:34.918Z,0
2017-02-17T01:57:44.367Z,0
2017-02-17T01:58:53.821Z,0
2017-02-17T02:00:03.643Z,0
2017-02-17T02:01:13.080Z,0
2017-02-17T02:02:22.540Z,0
2017-02-17T02:03:32.000Z,0
2017-02-17T02:04:40.695Z,0
2017-02-17T02:05:50.141Z,0
2017-02-17T02:06:59.203Z,0
2017-02-17T02:08:08.657Z,0
2017-02-17T02:09:18.105Z,0
2017-02-17T02:10:27.188Z,0
2017-02-17T02:11:36.254Z,0
2017-02-17T02:12:45.313Z,0
2017-02-17T02:13:54.373Z,0
2017-02-17T02:15:03.058Z,0
2017-02-17T02:16:11.740Z,0
2017-02-17T02:17:20.428Z,0
2017-02-17T02:18:29.878Z,0
2017-02-17T02:19:39.331Z,0
2017-02-17T02:20:49.219Z,0
2017-02-17T02:21:59.041Z,0
2017-02-17T02:23:08.469Z,0
2017-02-17T02:24:17.149Z,0
2017-02-17T02:25:26.608Z,0
2017-02-17T02:26:35.671Z,0
2017-02-17T02:27:44.748Z,0
2017-02-17T02:28:54.965Z,0
2017-02-17T02:30:04.045Z,0
2017-02-17T02:31:13.508Z,0
2017-02-17T02:32:22.580Z,0
2017-02-17T02:33:31.655Z,0
2017-02-17T02:34:40.350Z,0
2017-02-17T02:35:50.187Z,0
2017-02-17T02:36:59.645Z,0
2017-02-17T02:38:09.470Z,0
2017-02-17T02:39:18.926Z,0
2017-02-17T02:40:27.611Z,0
2017-02-17T02:41:36.686Z,0
2017-02-17T02:42:45.363Z,0
2017-02-17T02:43:54.434Z,0
2017-02-17T02:45:04.263Z,0
2017-02-17T02:46:13.343Z,0
2017-02-17T02:47:22.791Z,0
2017-02-17T02:48:31.474Z,0
2017-02-17T02:49:40.561Z,0
2017-02-17T02:50:49.613Z,0
2017-02-17T02:51:58.679Z,0
2017-02-17T02:53:08.169Z,0
2017-02-17T02:54:17.230Z,0
2017-02-17T02:55:26.672Z,0
2017-02-17T02:56:36.506Z,0
2017-02-17T02:57:46.325Z,0
2017-02-17T02:58:55.762Z,0
2017-02-17T03:00:04.825Z,0
2017-02-17T03:01:14.269Z,0
2017-02-17T03:02:22.957Z,0
2017-02-17T03:03:32.049Z,0
2017-02-17T03:04:41.483Z,0
2017-02-17T03:05:50.956Z,0
2017-02-17T03:07:00.819Z,0
2017-02-17T03:08:09.891Z,0
2017-02-17T03:09:19.335Z,0
2017-02-17T03:10:28.019Z,0
2017-02-17T03:11:37.859Z,0
2017-02-17T03:12:47.310Z,0
2017-02-17T03:13:56.761Z,0
2017-02-17T03:15:05.841Z,0
2017-02-17T03:16:14.915Z,0
2017-02-17T03:17:23.979Z,0
2017-02-17T03:18:33.043Z,0
2017-02-17T03:19:41.724Z,0
2017-02-17T03:20:50.415Z,0
2017-02-17T03:21:59.864Z,0
2017-02-17T03:23:08.952Z,0
2017-02-17T03:24:18.392Z,0
2017-02-17T03:25:27.114Z,0
2017-02-17T03:26:36.582Z,0
2017-02-17T03:27:46.023Z,0
2017-02-17T03:28:54.712Z,0
2017-02-17T03:30:04.536Z,0
2017-02-17T03:31:13.225Z,0
2017-02-17T03:32:22.672Z,0
2017-02-17T03:33:32.488Z,0
2017-02-17T03:34:41.560Z,0
2017-02-17T03:35:51.388Z,0
2017-02-17T03:37:00.095Z,0
2017-02-17T03:38:09.935Z,0
2017-02-17T03:39:19.009Z,0
2017-02-17T03:40:28.447Z,0
2017-02-17T03:41:38.281Z,0
2017-02-17T03:42:47.337Z,0
2017-02-17T03:43:56.406Z,0
2017-02-17T03:45:05.086Z,0
2017-02-17T03:46:14.163Z,0
2017-02-17T03:47:23.632Z,0
2017-02-17T03:48:32.333Z,0
2017-02-17T03:49:41.041Z,0
2017-02-17T03:50:50.114Z,0
2017-02-17T03:51:59.939Z,0
2017-02-17T03:53:09.396Z,0
2017-02-17T03:54:18.851Z,0
2017-02-17T03:55:28.683Z,0
2017-02-17T03:56:37.760Z,0
2017-02-17T03:57:47.599Z,0
2017-02-17T03:58:56.665Z,0
2017-02-17T04:00:06.127Z,0
2017-02-17T04:01:15.205Z,0
2017-02-17T04:02:23.896Z,0
2017-02-17T04:03:34.115Z,0
2017-02-17T04:04:43.576Z,0
2017-02-17T04:05:52.646Z,0
2017-02-17T04:07:02.123Z,0
2017-02-17T04:08:11.979Z,0
2017-02-17T04:09:21.427Z,0
2017-02-17T04:10:30.503Z,0
2017-02-17T04:11:40.336Z,0
2017-02-17T04:12:49.791Z,0
2017-02-17T04:13:58.482Z,0
2017-02-17T04:15:07.935Z,0
2017-02-17T04:16:17.026Z,0
2017-02-17T04:17:26.115Z,0
2017-02-17T04:18:35.985Z,0
2017-02-17T04:19:45.432Z,0
2017-02-17T04:20:55.644Z,0
2017-02-17T04:22:04.712Z,0
2017-02-17T04:23:14.952Z,0
2017-02-17T04:24:24.003Z,0
2017-02-17T04:25:33.444Z,0
2017-02-17T04:26:43.269Z,0
2017-02-17T04:27:52.704Z,0
2017-02-17T04:29:01.380Z,0
2017-02-17T04:30:10.820Z,0
2017-02-17T04:31:19.917Z,0
2017-02-17T04:32:28.986Z,0
2017-02-17T04:33:38.099Z,0
2017-02-17T04:34:46.799Z,0
2017-02-17T04:35:56.238Z,0
2017-02-17T04:37:05.308Z,0
2017-02-17T04:38:15.163Z,0
2017-02-17T04:39:25.013Z,0
2017-02-17T04:40:34.480Z,0
2017-02-17T04:41:44.311Z,0
2017-02-17T04:42:53.794Z,0
2017-02-17T04:44:02.857Z,0
2017-02-17T04:45:11.532Z,0
2017-02-17T04:46:20.988Z,0
2017-02-17T04:47:30.060Z,0
2017-02-17T04:48:39.520Z,0
2017-02-17T04:49:48.980Z,0
2017-02-17T04:50:58.412Z,0
2017-02-17T04:52:07.502Z,0
2017-02-17T04:53:16.577Z,0
2017-02-17T04:54:26.406Z,0
2017-02-17T04:55:35.459Z,0
2017-02-17T04:56:44.905Z,0
2017-02-17T04:57:54.352Z,0
2017-02-17T04:59:03.809Z,0
2017-02-17T05:00:12.874Z,0
2017-02-17T05:01:21.965Z,0
2017-02-17T05:02:31.422Z,0
2017-02-17T05:03:40.865Z,0
2017-02-17T05:04:50.317Z,0
2017-02-17T05:05:59.387Z,0
2017-02-17T05:07:08.833Z,0
2017-02-17T05:08:18.279Z,0
2017-02-17T05:09:27.734Z,0
2017-02-17T05:10:37.577Z,0
2017-02-17T05:11:47.421Z,0
2017-02-17T05:12:56.113Z,0
2017-02-17T05:14:05.962Z,0
2017-02-17T05:15:15.784Z,0
2017-02-17T05:16:25.239Z,0
2017-02-17T05:17:34.299Z,0
2017-02-17T05:18:43.364Z,0
2017-02-17T05:19:52.823Z,0
2017-02-17T05:21:01.877Z,0
2017-02-17T05:22:10.938Z,0
2017-02-17T05:23:20.783Z,0
2017-02-17T05:24:30.630Z,0
2017-02-17T05:25:40.096Z,0
2017-02-17T05:26:49.553Z,0
2017-02-17T05:27:58.240Z,0
2017-02-17T05:29:07.697Z,0
2017-02-17T05:30:17.153Z,0
2017-02-17T05:31:26.607Z,0
2017-02-17T05:32:36.430Z,0
2017-02-17T05:33:45.882Z,0
2017-02-17T05:34:55.338Z,0
2017-02-17T05:36:05.564Z,0
2017-02-17T05:37:14.617Z,0
2017-02-17T05:38:23.695Z,0
2017-02-17T05:39:33.525Z,0
2017-02-17T05:40:42.224Z,0
2017-02-17T05:41:51.713Z,0
2017-02-17T05:43:01.165Z,0
2017-02-17T05:44:10.244Z,0
2017-02-17T05:45:20.449Z,0
2017-02-17T05:46:29.133Z,0
2017-02-17T05:47:38.203Z,0
2017-02-17T05:48:47.706Z,0
2017-02-17T05:49:57.163Z,0
2017-02-17T05:51:06.628Z,0
2017-02-17T05:52:15.315Z,0
2017-02-17T05:53:24.030Z,0
2017-02-17T05:54:33.086Z,0
2017-02-17T05:55:42.535Z,0
2017-02-17T05:56:52.370Z,0
2017-02-17T05:58:01.827Z,0
2017-02-17T05:59:10.909Z,0
2017-02-17T06:00:20.350Z,0
2017-02-17T06:01:29.833Z,0
2017-02-17T06:02:38.912Z,0
2017-02-17T06:03:47.608Z,0
2017-02-17T06:04:56.687Z,0
2017-02-17T06:06:05.760Z,0
2017-02-17T06:07:14.829Z,0
2017-02-17T06:08:23.912Z,0
2017-02-17T06:09:33.376Z,0
2017-02-17T06:10:43.198Z,0
2017-02-17T06:11:52.661Z,0
2017-02-17T06:13:01.352Z,0
2017-02-17T06:14:10.818Z,0
2017-02-17T06:15:19.877Z,0
2017-02-17T06:16:29.332Z,0
2017-02-17T06:17:38.422Z,0
2017-02-17T06:18:47.489Z,0
2017-02-17T06:19:56.561Z,0
2017-02-17T06:21:05.634Z,0
2017-02-17T06:22:14.340Z,0
2017-02-17T06:23:23.026Z,0
2017-02-17T06:24:32.474Z,0
2017-02-17T06:25:42.312Z,0
2017-02-17T06:26:51.793Z,0
2017-02-17T06:28:01.647Z,0
2017-02-17T06:29:10.719Z,0
2017-02-17T06:30:19.803Z,0
2017-02-17T06:31:28.490Z,0
2017-02-17T06:32:37.956Z,0
2017-02-17T06:33:47.018Z,0
2017-02-17T06:34:55.713Z,0
2017-02-17T06:36:05.152Z,0
2017-02-17T06:37:14.617Z,0
2017-02-17T06:38:23.701Z,0
2017-02-17T06:39:32.764Z,0
2017-02-17T06:40:42.216Z,0
2017-02-17T06:41:51.659Z,5
2017-02-17T06:43:01.879Z,5
2017-02-17T06:44:11.702Z,5
2017-02-17T06:45:20.437Z,5
2017-02-17T06:46:29.883Z,5
2017-02-17T06:47:38.945Z,0
2017-02-17T06:48:48.407Z,0
2017-02-17T06:49:57.874Z,0
2017-02-17T06:51:07.351Z,0
2017-02-17T06:52:16.415Z,0
2017-02-17T06:53:25.484Z,0
2017-02-17T06:54:34.938Z,0
2017-02-17T06:55:44.382Z,0
2017-02-17T06:56:53.078Z,0
2017-02-17T06:58:02.923Z,0
2017-02-17T06:59:12.007Z,0
2017-02-17T07:00:21.085Z,0
2017-02-17T07:01:30.330Z,5
2017-02-17T07:02:39.490Z,5
2017-02-17T07:03:48.567Z,5
2017-02-17T07:04:57.234Z,5
2017-02-17T07:06:06.673Z,5
2017-02-17T07:07:15.736Z,5
2017-02-17T07:08:24.825Z,10
2017-02-17T07:09:34.277Z,5
2017-02-17T07:10:43.355Z,10
2017-02-17T07:11:52.060Z,10
2017-02-17T07:13:01.125Z,10
2017-02-17T07:14:09.814Z,15
2017-02-17T07:15:19.253Z,10
2017-02-17T07:16:28.357Z,10
2017-02-17T07:17:37.431Z,15
2017-02-17T07:18:46.500Z,10
2017-02-17T07:19:55.564Z,15
2017-02-17T07:21:05.420Z,10
2017-02-17T07:22:14.107Z,15
2017-02-17T07:23:23.161Z,15
2017-02-17T07:24:32.623Z,15
2017-02-17T07:25:42.097Z,20
2017-02-17T07:26:51.553Z,15
2017-02-17T07:28:01.397Z,20
2017-02-17T07:29:11.228Z,20
2017-02-17T07:30:20.293Z,30
2017-02-17T07:31:29.362Z,30
2017-02-17T07:32:39.192Z,30
2017-02-17T07:33:48.657Z,25
2017-02-17T07:34:57.343Z,30
2017-02-17T07:36:06.032Z,30
2017-02-17T07:37:15.482Z,25
2017-02-17T07:38:24.550Z,25
2017-02-17T07:39:34.367Z,25
2017-02-17T07:40:43.435Z,25
2017-02-17T07:41:52.882Z,25
2017-02-17T07:43:02.331Z,25
2017-02-17T07:44:12.160Z,25
2017-02-17T07:45:21.975Z,30
2017-02-17T07:46:31.027Z,30
2017-02-17T07:47:41.249Z,40
2017-02-17T07:48:50.316Z,45
2017-02-17T07:49:59.408Z,50
2017-02-17T07:51:09.252Z,50
2017-02-17T07:52:17.932Z,45
2017-02-17T07:53:27.769Z,40
2017-02-17T07:54:37.217Z,35
2017-02-17T07:55:46.280Z,35
2017-02-17T07:56:56.112Z,30
2017-02-17T07:58:05.947Z,30
2017-02-17T07:59:15.400Z,30
2017-02-17T08:00:24.082Z,35
2017-02-17T08:01:33.552Z,35
2017-02-17T08:02:42.618Z,35
2017-02-17T08:03:52.060Z,35
2017-02-17T08:05:00.736Z,35
2017-02-17T08:06:10.198Z,35
2017-02-17T08:07:19.657Z,40
2017-02-17T08:08:29.482Z,40
2017-02-17T08:09:38.545Z,45
2017-02-17T08:10:47.625Z,55
2017-02-17T08:11:57.092Z,65
2017-02-17T08:13:06.551Z,65
2017-02-17T08:14:16.003Z,75
2017-02-17T08:15:25.083Z,90
2017-02-17T08:16:34.907Z,95
2017-02-17T08:17:44.351Z,85
2017-02-17T08:18:53.424Z,95
2017-02-17T08:20:02.892Z,90
2017-02-17T08:21:12.739Z,85
2017-02-17T08:22:22.604Z,80
2017-02-17T08:23:32.824Z,80
2017-02-17T08:24:41.524Z,80
2017-02-17T08:25:50.605Z,90
2017-02-17T08:27:00.063Z,90
2017-02-17T08:28:09.125Z,90
2017-02-17T08:29:18.572Z,105
2017-02-17T08:30:28.018Z,100
2017-02-17T08:31:37.475Z,85
2017-02-17T08:32:47.697Z,80
2017-02-17T08:33:56.771Z,90
2017-02-17T08:35:06.635Z,90
2017-02-17T08:36:15.720Z,80
2017-02-17T08:37:24.779Z,80
2017-02-17T08:38:33.469Z,75
2017-02-17T08:39:42.930Z,80
2017-02-17T08:40:52.023Z,85
2017-02-17T08:42:01.470Z,90
2017-02-17T08:43:11.307Z,80
2017-02-17T08:44:20.748Z,85
2017-02-17T08:45:30.197Z,95
2017-02-17T08:46:39.265Z,105
2017-02-17T08:47:47.947Z,105
2017-02-17T08:48:57.390Z,125
2017-02-17T08:50:07.228Z,130
2017-02-17T08:51:16.292Z,145
2017-02-17T08:52:25.745Z,160
2017-02-17T08:53:35.043Z,175
2017-02-17T08:54:44.147Z,175
2017-02-17T08:55:53.594Z,130
2017-02-17T08:57:03.428Z,140
2017-02-17T08:58:12.503Z,125
2017-02-17T08:59:21.584Z,115
2017-02-17T09:00:30.300Z,95
2017-02-17T09:01:39.398Z,80
2017-02-17T09:02:48.481Z,75
2017-02-17T09:03:57.539Z,65
2017-02-17T09:05:07.760Z,60
2017-02-17T09:06:17.198Z,70
2017-02-17T09:07:25.894Z,75
2017-02-17T09:08:34.952Z,85
2017-02-17T09:09:44.409Z,105
2017-02-17T09:10:53.468Z,115
2017-02-17T09:12:02.541Z,130
2017-02-17T09:13:12.003Z,115
2017-02-17T09:14:21.096Z,110
2017-02-17T09:15:30.170Z,105
2017-02-17T09:16:39.625Z,135
2017-02-17T09:17:48.691Z,145
2017-02-17T09:18:57.767Z,175
2017-02-17T09:20:07.219Z,160
2017-02-17T09:21:17.042Z,160
2017-02-17T09:22:26.510Z,165
2017-02-17T09:23:36.342Z,190
2017-02-17T09:24:45.042Z,240
2017-02-17T09:25:54.127Z,210
2017-02-17T09:27:03.579Z,175
2017-02-17T09:28:12.287Z,190
2017-02-17T09:29:21.400Z,195
2017-02-17T09:30:30.084Z,200
2017-02-17T09:31:39.146Z,215
2017-02-17T09:32:48.219Z,225
2017-02-17T09:33:57.687Z,210
2017-02-17T09:35:07.146Z,220
2017-02-17T09:36:16.978Z,220
2017-02-17T09:37:26.443Z,235
2017-02-17T09:38:35.154Z,265
2017-02-17T09:39:44.610Z,265
2017-02-17T09:40:53.673Z,260
2017-02-17T09:42:03.878Z,215
2017-02-17T09:43:12.943Z,215
2017-02-17T09:44:22.398Z,215
2017-02-17T09:45:31.464Z,225
2017-02-17T09:46:40.907Z,240
2017-02-17T09:47:50.402Z,250
2017-02-17T09:48:59.497Z,265
2017-02-17T09:50:09.318Z,265
2017-02-17T09:51:18.019Z,275
2017-02-17T09:52:27.462Z,250
2017-02-17T09:53:36.546Z,250
2017-02-17T09:54:46.007Z,230
2017-02-17T09:55:55.081Z,190
2017-02-17T09:57:04.931Z,185
2017-02-17T09:58:14.415Z,155
2017-02-17T09:59:23.484Z,125
2017-02-17T10:00:32.177Z,125
2017-02-17T10:01:42.008Z,125
2017-02-17T10:02:51.489Z,100
2017-02-17T10:04:00.194Z,95
2017-02-17T10:05:09.272Z,115
2017-02-17T10:06:19.120Z,140
2017-02-17T10:07:28.241Z,180
2017-02-17T10:08:37.713Z,220
2017-02-17T10:09:46.797Z,185
2017-02-17T10:10:57.010Z,225
2017-02-17T10:12:06.866Z,170
2017-02-17T10:13:15.954Z,140
2017-02-17T10:14:25.419Z,145
2017-02-17T10:15:34.116Z,130
2017-02-17T10:16:43.195Z,120
2017-02-17T10:17:53.017Z,115
2017-02-17T10:19:02.137Z,75
2017-02-17T10:20:12.364Z,70
2017-02-17T10:21:21.420Z,95
2017-02-17T10:22:31.632Z,120
2017-02-17T10:23:40.700Z,125
2017-02-17T10:24:50.169Z,135
2017-02-17T10:25:59.249Z,135
2017-02-17T10:27:09.456Z,155
2017-02-17T10:28:18.904Z,165
2017-02-17T10:29:27.963Z,175
2017-02-17T10:30:37.419Z,135
2017-02-17T10:31:46.101Z,135
2017-02-17T10:32:55.184Z,145
2017-02-17T10:34:04.259Z,155
2017-02-17T10:35:14.081Z,150
2017-02-17T10:36:22.768Z,135
2017-02-17T10:37:31.833Z,100
2017-02-17T10:38:41.664Z,100
2017-02-17T10:39:51.119Z,115
2017-02-17T10:41:00.957Z,110
2017-02-17T10:42:10.019Z,95
2017-02-17T10:43:19.085Z,95
2017-02-17T10:44:27.772Z,110
2017-02-17T10:45:36.845Z,110
2017-02-17T10:46:45.921Z,100
2017-02-17T10:47:55.372Z,90
2017-02-17T10:49:04.460Z,120
2017-02-17T10:50:13.522Z,190
2017-02-17T10:51:22.973Z,415
2017-02-17T10:52:32.063Z,630
2017-02-17T10:53:41.134Z,760
2017-02-17T10:54:50.200Z,635
2017-02-17T10:55:59.693Z,540
2017-02-17T10:57:09.515Z,690
2017-02-17T10:58:18.595Z,680
2017-02-17T10:59:28.055Z,525
2017-02-17T11:00:37.519Z,440
2017-02-17T11:01:46.978Z,440
2017-02-17T11:02:56.437Z,330
2017-02-17T11:04:05.885Z,270
2017-02-17T11:05:15.341Z,215
2017-02-17T11:06:24.795Z,220
2017-02-17T11:07:34.631Z,205
2017-02-17T11:08:44.074Z,280
2017-02-17T11:09:53.519Z,295
2017-02-17T11:11:03.379Z,340
2017-02-17T11:12:12.827Z,340
2017-02-17T11:13:21.539Z,400
2017-02-17T11:14:31.382Z,455
2017-02-17T11:15:40.885Z,535
2017-02-17T11:16:49.950Z,580
2017-02-17T11:17:59.783Z,615
2017-02-17T11:19:09.239Z,645
2017-02-17T11:20:18.319Z,650
2017-02-17T11:21:27.799Z,715
2017-02-17T11:22:36.486Z,710
2017-02-17T11:23:46.330Z,700
2017-02-17T11:24:55.779Z,740
2017-02-17T11:26:04.845Z,670
2017-02-17T11:27:13.905Z,680
2017-02-17T11:28:23.355Z,685
2017-02-17T11:29:33.190Z,660
2017-02-17T11:30:42.259Z,575
2017-02-17T11:31:51.325Z,430
2017-02-17T11:33:00.392Z,420
2017-02-17T11:34:09.097Z,325
2017-02-17T11:35:17.773Z,345
2017-02-17T11:36:26.843Z,410
2017-02-17T11:37:35.902Z,415
2017-02-17T11:38:45.744Z,380
2017-02-17T11:39:54.422Z,325
2017-02-17T11:41:03.118Z,265
2017-02-17T11:42:12.560Z,200
2017-02-17T11:43:21.256Z,145
2017-02-17T11:44:30.710Z,140
2017-02-17T11:45:40.549Z,160
2017-02-17T11:46:50.423Z,155
2017-02-17T11:47:59.498Z,160
2017-02-17T11:49:08.970Z,175
2017-02-17T11:50:18.046Z,235
2017-02-17T11:51:26.758Z,215
2017-02-17T11:52:35.868Z,185
2017-02-17T11:53:45.343Z,195
2017-02-17T11:54:54.404Z,235
2017-02-17T11:56:03.864Z,250
2017-02-17T11:57:14.111Z,230
2017-02-17T11:58:22.809Z,145
2017-02-17T11:59:32.645Z,150
2017-02-17T12:00:42.471Z,155
2017-02-17T12:01:51.185Z,260
2017-02-17T12:03:00.261Z,365
2017-02-17T12:04:10.107Z,415
2017-02-17T12:05:19.176Z,485
2017-02-17T12:06:28.999Z,505
2017-02-17T12:07:38.504Z,460
2017-02-17T12:08:47.569Z,455
2017-02-17T12:09:56.265Z,465
2017-02-17T12:11:05.708Z,425
2017-02-17T12:12:14.397Z,415
2017-02-17T12:13:24.259Z,495
2017-02-17T12:14:33.733Z,555
2017-02-17T12:15:43.183Z,610
2017-02-17T12:16:53.058Z,640
2017-02-17T12:18:02.128Z,640
2017-02-17T12:19:11.589Z,645
2017-02-17T12:20:21.037Z,625
2017-02-17T12:21:30.496Z,605
2017-02-17T12:22:39.211Z,600
2017-02-17T12:23:48.277Z,610
2017-02-17T12:24:58.115Z,575
2017-02-17T12:26:07.561Z,580
2017-02-17T12:27:16.334Z,620
2017-02-17T12:28:25.799Z,635
2017-02-17T12:29:34.485Z,650
2017-02-17T12:30:43.941Z,655
2017-02-17T12:31:53.009Z,640
2017-02-17T12:33:02.461Z,635
2017-02-17T12:34:11.167Z,675
2017-02-17T12:35:19.863Z,710
2017-02-17T12:36:28.560Z,730
2017-02-17T12:37:37.645Z,725
2017-02-17T12:38:46.337Z,725
2017-02-17T12:39:56.185Z,755
2017-02-17T12:41:05.646Z,775
2017-02-17T12:42:15.483Z,785
2017-02-17T12:43:24.563Z,760
2017-02-17T12:44:34.215Z,740
2017-02-17T12:45:43.663Z,740
2017-02-17T12:46:52.760Z,700
2017-02-17T12:48:02.205Z,645
2017-02-17T12:49:11.674Z,700
2017-02-17T12:50:21.120Z,740
2017-02-17T12:51:30.948Z,740
2017-02-17T12:52:40.773Z,730
2017-02-17T12:53:50.242Z,585
2017-02-17T12:54:59.743Z,200
2017-02-17T12:56:09.187Z,565
2017-02-17T12:57:18.257Z,365
2017-02-17T12:58:28.097Z,370
2017-02-17T12:59:37.177Z,355
2017-02-17T13:00:46.644Z,400
2017-02-17T13:01:56.489Z,410
2017-02-17T13:03:06.365Z,5
2017-02-17T13:04:15.432Z,30
2017-02-17T13:05:24.118Z,35
2017-02-17T13:06:33.190Z,30
2017-02-17T13:07:44.709Z,30
2017-02-17T13:08:54.211Z,0
2017-02-17T13:10:04.049Z,545
2017-02-17T13:11:13.128Z,765
2017-02-17T13:12:22.571Z,865
2017-02-17T13:13:31.641Z,805
2017-02-17T13:14:41.469Z,675
2017-02-17T13:15:50.554Z,530
2017-02-17T13:17:00.401Z,555
2017-02-17T13:18:09.855Z,685
2017-02-17T13:19:19.319Z,715
2017-02-17T13:20:28.393Z,665
2017-02-17T13:21:38.229Z,590
2017-02-17T13:22:48.077Z,585
2017-02-17T13:23:57.910Z,585
2017-02-17T13:25:07.384Z,580
2017-02-17T13:26:16.867Z,565
2017-02-17T13:27:25.937Z,525
2017-02-17T13:28:35.013Z,470
2017-02-17T13:29:44.083Z,470
2017-02-17T13:30:53.147Z,450
2017-02-17T13:32:02.613Z,465
2017-02-17T13:33:12.452Z,460
2017-02-17T13:34:21.532Z,420
2017-02-17T13:35:30.216Z,490
2017-02-17T13:36:39.696Z,620
2017-02-17T13:37:49.177Z,635
2017-02-17T13:38:59.393Z,550
2017-02-17T13:40:08.473Z,505
2017-02-17T13:41:18.336Z,445
2017-02-17T13:42:27.812Z,380
2017-02-17T13:43:37.285Z,330
2017-02-17T13:44:47.121Z,335
2017-02-17T13:45:56.588Z,320
2017-02-17T13:47:05.667Z,315
2017-02-17T13:48:15.127Z,340
2017-02-17T13:49:24.580Z,400
2017-02-17T13:50:34.064Z,470
2017-02-17T13:51:43.515Z,520
2017-02-17T13:52:52.592Z,555
2017-02-17T13:54:02.421Z,595
2017-02-17T13:55:11.885Z,575
2017-02-17T13:56:21.466Z,530
2017-02-17T13:57:30.952Z,470
2017-02-17T13:58:40.786Z,465
2017-02-17T13:59:49.865Z,470
2017-02-17T14:00:58.570Z,465
2017-02-17T14:02:07.640Z,480
2017-02-17T14:03:16.362Z,475
2017-02-17T14:04:25.424Z,430
2017-02-17T14:05:34.501Z,390
2017-02-17T14:06:44.346Z,380
2017-02-17T14:07:53.431Z,350
2017-02-17T14:09:02.134Z,310
2017-02-17T14:10:11.972Z,285
2017-02-17T14:11:21.433Z,275
2017-02-17T14:12:30.113Z,230
2017-02-17T14:13:39.573Z,220
2017-02-17T14:14:48.658Z,215
2017-02-17T14:15:57.749Z,215
2017-02-17T14:17:06.834Z,200
2017-02-17T14:18:16.300Z,205
2017-02-17T14:19:25.756Z,215
2017-02-17T14:20:34.462Z,215
2017-02-17T14:21:45.063Z,210
2017-02-17T14:22:54.531Z,220
2017-02-17T14:24:04.360Z,225
2017-02-17T14:25:13.434Z,205
2017-02-17T14:26:22.127Z,165
2017-02-17T14:27:31.212Z,145
2017-02-17T14:28:40.283Z,155
2017-02-17T14:29:49.747Z,150
2017-02-17T14:30:59.207Z,150
2017-02-17T14:32:08.654Z,150
2017-02-17T14:33:17.341Z,120
2017-02-17T14:34:26.795Z,105
2017-02-17T14:35:35.872Z,105
2017-02-17T14:36:44.556Z,90
2017-02-17T14:37:54.022Z,90
2017-02-17T14:39:02.719Z,95
2017-02-17T14:40:11.798Z,90
2017-02-17T14:41:21.641Z,80
2017-02-17T14:42:30.724Z,105
2017-02-17T14:43:40.185Z,125
2017-02-17T14:44:49.379Z,145
2017-02-17T14:45:58.834Z,170
2017-02-17T14:47:07.891Z,175
2017-02-17T14:48:16.971Z,170
2017-02-17T14:49:26.425Z,180
2017-02-17T14:50:35.489Z,210
2017-02-17T14:51:44.964Z,220
2017-02-17T14:52:54.061Z,225
2017-02-17T14:54:03.899Z,215
2017-02-17T14:55:13.759Z,200
2017-02-17T14:56:22.465Z,190
2017-02-17T14:57:31.562Z,200
2017-02-17T14:58:41.007Z,200
2017-02-17T14:59:50.842Z,190
2017-02-17T15:01:00.285Z,165
2017-02-17T15:02:09.731Z,180
2017-02-17T15:03:19.192Z,175
2017-02-17T15:04:29.036Z,195
2017-02-17T15:05:38.490Z,260
2017-02-17T15:06:47.579Z,265
2017-02-17T15:07:56.268Z,275
2017-02-17T15:09:06.121Z,265
2017-02-17T15:10:15.199Z,265
2017-02-17T15:11:23.911Z,260
2017-02-17T15:12:33.353Z,260
2017-02-17T15:13:42.427Z,260
2017-02-17T15:14:52.264Z,245
2017-02-17T15:16:01.336Z,245
2017-02-17T15:17:11.176Z,240
2017-02-17T15:18:20.650Z,220
2017-02-17T15:19:29.720Z,210
2017-02-17T15:20:38.804Z,190
2017-02-17T15:21:48.271Z,185
2017-02-17T15:22:57.335Z,180
2017-02-17T15:24:06.437Z,185
2017-02-17T15:25:15.518Z,190
2017-02-17T15:26:24.613Z,195
2017-02-17T15:27:33.701Z,215
2017-02-17T15:28:42.403Z,225
2017-02-17T15:29:51.089Z,235
2017-02-17T15:31:00.169Z,240
2017-02-17T15:32:09.633Z,225
2017-02-17T15:33:18.327Z,200
2017-02-17T15:34:27.787Z,175
2017-02-17T15:35:36.859Z,150
2017-02-17T15:36:46.345Z,135
2017-02-17T15:37:55.047Z,130
2017-02-17T15:39:04.487Z,125
2017-02-17T15:40:13.179Z,110
2017-02-17T15:41:22.327Z,95
2017-02-17T15:42:32.201Z,95
2017-02-17T15:43:41.672Z,85
2017-02-17T15:44:51.114Z,75
2017-02-17T15:46:00.196Z,70
2017-02-17T15:47:09.670Z,65
2017-02-17T15:48:18.731Z,55
2017-02-17T15:49:27.416Z,50
2017-02-17T15:50:36.497Z,40
2017-02-17T15:51:45.560Z,40
2017-02-17T15:52:55.022Z,40
2017-02-17T15:54:05.238Z,45
2017-02-17T15:55:14.731Z,40
2017-02-17T15:56:23.802Z,40
2017-02-17T15:57:32.492Z,45
2017-02-17T15:58:42.337Z,50
2017-02-17T15:59:51.418Z,50
2017-02-17T16:01:00.875Z,50
2017-02-17T16:02:10.325Z,45
2017-02-17T16:03:19.798Z,45
2017-02-17T16:04:29.640Z,40
2017-02-17T16:05:39.905Z,40
2017-02-17T16:06:48.997Z,40
2017-02-17T16:07:58.071Z,40
2017-02-17T16:09:06.788Z,40
2017-02-17T16:10:15.864Z,40
2017-02-17T16:11:24.921Z,35
2017-02-17T16:12:34.763Z,35
2017-02-17T16:13:43.832Z,35
2017-02-17T16:14:52.887Z,35
2017-02-17T16:16:01.983Z,40
2017-02-17T16:17:11.085Z,40
2017-02-17T16:18:20.157Z,45
2017-02-17T16:19:29.988Z,40
2017-02-17T16:20:39.449Z,40
2017-02-17T16:21:48.544Z,40
2017-02-17T16:22:58.415Z,40
2017-02-17T16:24:08.249Z,40
2017-02-17T16:25:17.726Z,40
2017-02-17T16:26:26.795Z,35
2017-02-17T16:27:35.876Z,30
2017-02-17T16:28:44.961Z,30
2017-02-17T16:29:53.643Z,25